Terminal Aerodrome Forecast
Issued by NWS

Home | Current Version | Previous Version | Text Only | Print | Product List | Glossary On
Versions: 1 2 3 4 5 6 7 8 9 10 11 12 13 14 15 16 17 18
000
FTUS43 KILX 231700
TAFDEC
TAF
KDEC 231729Z 2318/2418 08008KT P6SM SCT040 BKN250
     FM232000 12005KT P6SM SCT040 BKN120
     FM240900 12003KT 3SM BR SCT250
     FM241400 14008KT P6SM SCT025 BKN250=

USA.gov is the U.S. government's official web portal to all federal, state and local government web resources and services.